sensor_id;sensor_type;location;lat;lon;timestamp;P1;durP1;ratioP1;P2;durP2;ratioP2
12844;SDS011;68700;48.534;9.196;2023-04-03T00:02:03;24.53;;;5.13;;
12844;SDS011;68700;48.534;9.196;2023-04-03T00:05:26;34.80;;;6.73;;
12844;SDS011;68700;48.534;9.196;2023-04-03T00:08:49;27.93;;;5.33;;
12844;SDS011;68700;48.534;9.196;2023-04-03T00:12:11;23.93;;;4.90;;
12844;SDS011;68700;48.534;9.196;2023-04-03T00:15:33;31.03;;;5.97;;
12844;SDS011;68700;48.534;9.196;2023-04-03T00:18:56;25.40;;;5.00;;
12844;SDS011;68700;48.534;9.196;2023-04-03T00:22:19;23.93;;;4.80;;
12844;SDS011;68700;48.534;9.196;2023-04-03T00:25:42;26.77;;;5.40;;
12844;SDS011;68700;48.534;9.196;2023-04-03T00:29:04;24.23;;;4.93;;
12844;SDS011;68700;48.534;9.196;2023-04-03T00:32:26;25.30;;;5.20;;
12844;SDS011;68700;48.534;9.196;2023-04-03T00:35:48;22.93;;;4.97;;
12844;SDS011;68700;48.534;9.196;2023-04-03T00:39:12;28.23;;;5.57;;
12844;SDS011;68700;48.534;9.196;2023-04-03T00:42:35;25.17;;;5.17;;
12844;SDS011;68700;48.534;9.196;2023-04-03T00:45:57;31.83;;;6.07;;
12844;SDS011;68700;48.534;9.196;2023-04-03T00:49:20;23.17;;;4.70;;
12844;SDS011;68700;48.534;9.196;2023-04-03T00:52:42;38.53;;;7.30;;
12844;SDS011;68700;48.534;9.196;2023-04-03T00:56:08;28.83;;;5.70;;
12844;SDS011;68700;48.534;9.196;2023-04-03T00:59:32;22.03;;;4.50;;
12844;SDS011;68700;48.534;9.196;2023-04-03T01:02:55;49.80;;;8.90;;
12844;SDS011;68700;48.534;9.196;2023-04-03T01:06:19;24.60;;;5.20;;
12844;SDS011;68700;48.534;9.196;2023-04-03T01:09:42;28.63;;;5.63;;
12844;SDS011;68700;48.534;9.196;2023-04-03T01:13:18;24.97;;;5.17;;
12844;SDS011;68700;48.534;9.196;2023-04-03T01:16:41;16.63;;;3.73;;
12844;SDS011;68700;48.534;9.196;2023-04-03T01:20:14;23.43;;;4.83;;
12844;SDS011;68700;48.534;9.196;2023-04-03T01:23:45;19.57;;;4.30;;
12844;SDS011;68700;48.534;9.196;2023-04-03T01:27:09;21.13;;;4.60;;
12844;SDS011;68700;48.534;9.196;2023-04-03T01:30:34;21.27;;;4.57;;
12844;SDS011;68700;48.534;9.196;2023-04-03T01:33:58;25.20;;;5.13;;
12844;SDS011;68700;48.534;9.196;2023-04-03T01:37:20;20.43;;;4.33;;
12844;SDS011;68700;48.534;9.196;2023-04-03T01:40:42;27.83;;;5.63;;
12844;SDS011;68700;48.534;9.196;2023-04-03T01:44:05;29.53;;;5.93;;
12844;SDS011;68700;48.534;9.196;2023-04-03T01:47:27;29.93;;;6.00;;
12844;SDS011;68700;48.534;9.196;2023-04-03T01:50:50;23.87;;;5.00;;
12844;SDS011;68700;48.534;9.196;2023-04-03T01:54:12;30.00;;;5.87;;
12844;SDS011;68700;48.534;9.196;2023-04-03T01:57:35;16.60;;;3.80;;
12844;SDS011;68700;48.534;9.196;2023-04-03T02:00:57;22.13;;;4.73;;
12844;SDS011;68700;48.534;9.196;2023-04-03T02:04:19;20.40;;;4.50;;
12844;SDS011;68700;48.534;9.196;2023-04-03T02:07:43;33.30;;;6.47;;
12844;SDS011;68700;48.534;9.196;2023-04-03T02:11:05;23.93;;;4.97;;
12844;SDS011;68700;48.534;9.196;2023-04-03T02:14:28;21.00;;;4.40;;
12844;SDS011;68700;48.534;9.196;2023-04-03T02:17:50;25.17;;;4.93;;
12844;SDS011;68700;48.534;9.196;2023-04-03T02:21:12;26.20;;;5.40;;
12844;SDS011;68700;48.534;9.196;2023-04-03T02:24:35;22.33;;;4.73;;
12844;SDS011;68700;48.534;9.196;2023-04-03T02:27:59;31.43;;;5.90;;
12844;SDS011;68700;48.534;9.196;2023-04-03T02:31:21;25.73;;;5.40;;
12844;SDS011;68700;48.534;9.196;2023-04-03T02:34:44;27.10;;;5.47;;
12844;SDS011;68700;48.534;9.196;2023-04-03T02:38:05;32.70;;;6.27;;
12844;SDS011;68700;48.534;9.196;2023-04-03T02:41:29;36.33;;;6.90;;
12844;SDS011;68700;48.534;9.196;2023-04-03T02:44:55;28.97;;;5.77;;
12844;SDS011;68700;48.534;9.196;2023-04-03T02:48:17;29.73;;;5.97;;
12844;SDS011;68700;48.534;9.196;2023-04-03T02:51:39;21.70;;;4.67;;
12844;SDS011;68700;48.534;9.196;2023-04-03T02:55:01;35.97;;;7.03;;
12844;SDS011;68700;48.534;9.196;2023-04-03T02:58:25;32.00;;;6.40;;
12844;SDS011;68700;48.534;9.196;2023-04-03T03:01:47;17.60;;;4.20;;
12844;SDS011;68700;48.534;9.196;2023-04-03T03:05:09;26.33;;;5.50;;
12844;SDS011;68700;48.534;9.196;2023-04-03T03:08:31;24.93;;;4.97;;
12844;SDS011;68700;48.534;9.196;2023-04-03T03:11:53;19.47;;;4.37;;
12844;SDS011;68700;48.534;9.196;2023-04-03T03:15:17;25.37;;;5.20;;
12844;SDS011;68700;48.534;9.196;2023-04-03T03:18:39;27.70;;;5.53;;
12844;SDS011;68700;48.534;9.196;2023-04-03T03:22:01;29.50;;;6.07;;
12844;SDS011;68700;48.534;9.196;2023-04-03T03:25:23;20.63;;;4.67;;
12844;SDS011;68700;48.534;9.196;2023-04-03T03:28:45;28.97;;;5.77;;
12844;SDS011;68700;48.534;9.196;2023-04-03T03:32:09;23.03;;;4.90;;
12844;SDS011;68700;48.534;9.196;2023-04-03T03:35:32;25.10;;;5.27;;
12844;SDS011;68700;48.534;9.196;2023-04-03T03:38:54;25.57;;;5.30;;
12844;SDS011;68700;48.534;9.196;2023-04-03T03:42:17;19.83;;;4.43;;
12844;SDS011;68700;48.534;9.196;2023-04-03T03:45:39;23.43;;;4.90;;
12844;SDS011;68700;48.534;9.196;2023-04-03T03:49:02;24.13;;;5.27;;
12844;SDS011;68700;48.534;9.196;2023-04-03T03:52:24;24.07;;;5.13;;
12844;SDS011;68700;48.534;9.196;2023-04-03T03:55:47;22.43;;;4.80;;
12844;SDS011;68700;48.534;9.196;2023-04-03T03:59:10;31.77;;;6.17;;
12844;SDS011;68700;48.534;9.196;2023-04-03T04:02:33;31.50;;;6.10;;
12844;SDS011;68700;48.534;9.196;2023-04-03T04:05:56;18.80;;;4.20;;
12844;SDS011;68700;48.534;9.196;2023-04-03T04:09:18;22.03;;;4.63;;
12844;SDS011;68700;48.534;9.196;2023-04-03T04:12:41;29.47;;;5.77;;
12844;SDS011;68700;48.534;9.196;2023-04-03T04:16:03;24.67;;;5.23;;
12844;SDS011;68700;48.534;9.196;2023-04-03T04:19:26;29.17;;;5.57;;
12844;SDS011;68700;48.534;9.196;2023-04-03T04:22:49;42.43;;;7.93;;
12844;SDS011;68700;48.534;9.196;2023-04-03T04:26:11;34.90;;;6.77;;
12844;SDS011;68700;48.534;9.196;2023-04-03T04:29:33;23.77;;;4.70;;
12844;SDS011;68700;48.534;9.196;2023-04-03T04:32:57;38.20;;;7.13;;
12844;SDS011;68700;48.534;9.196;2023-04-03T04:36:19;24.00;;;5.20;;
12844;SDS011;68700;48.534;9.196;2023-04-03T04:39:43;22.27;;;4.50;;
12844;SDS011;68700;48.534;9.196;2023-04-03T04:43:05;21.33;;;4.77;;
12844;SDS011;68700;48.534;9.196;2023-04-03T04:46:27;22.70;;;4.90;;
12844;SDS011;68700;48.534;9.196;2023-04-03T04:49:49;26.33;;;5.30;;
12844;SDS011;68700;48.534;9.196;2023-04-03T04:53:12;18.87;;;4.40;;
12844;SDS011;68700;48.534;9.196;2023-04-03T04:56:35;23.43;;;5.00;;
12844;SDS011;68700;48.534;9.196;2023-04-03T04:59:57;25.97;;;5.20;;
12844;SDS011;68700;48.534;9.196;2023-04-03T05:03:19;23.50;;;4.97;;
12844;SDS011;68700;48.534;9.196;2023-04-03T05:06:41;21.57;;;4.67;;
12844;SDS011;68700;48.534;9.196;2023-04-03T05:10:05;23.30;;;5.00;;
12844;SDS011;68700;48.534;9.196;2023-04-03T05:13:28;22.83;;;4.80;;
12844;SDS011;68700;48.534;9.196;2023-04-03T05:16:50;21.90;;;4.87;;
12844;SDS011;68700;48.534;9.196;2023-04-03T05:20:13;23.83;;;4.80;;
12844;SDS011;68700;48.534;9.196;2023-04-03T05:23:36;30.27;;;6.03;;
12844;SDS011;68700;48.534;9.196;2023-04-03T05:26:58;28.83;;;5.90;;
12844;SDS011;68700;48.534;9.196;2023-04-03T05:30:21;26.03;;;5.30;;
12844;SDS011;68700;48.534;9.196;2023-04-03T05:33:44;23.27;;;4.90;;
12844;SDS011;68700;48.534;9.196;2023-04-03T05:37:06;37.17;;;7.20;;
12844;SDS011;68700;48.534;9.196;2023-04-03T05:40:29;25.90;;;5.47;;
12844;SDS011;68700;48.534;9.196;2023-04-03T05:43:51;21.60;;;4.60;;
12844;SDS011;68700;48.534;9.196;2023-04-03T05:47:14;26.53;;;5.13;;
12844;SDS011;68700;48.534;9.196;2023-04-03T05:50:36;24.97;;;5.20;;
12844;SDS011;68700;48.534;9.196;2023-04-03T05:54:03;16.47;;;3.87;;
12844;SDS011;68700;48.534;9.196;2023-04-03T05:57:27;18.33;;;3.97;;
12844;SDS011;68700;48.534;9.196;2023-04-03T06:00:50;26.03;;;5.47;;
12844;SDS011;68700;48.534;9.196;2023-04-03T06:04:13;22.90;;;4.93;;
12844;SDS011;68700;48.534;9.196;2023-04-03T06:07:36;24.50;;;5.70;;
12844;SDS011;68700;48.534;9.196;2023-04-03T06:11:01;24.00;;;5.17;;
12844;SDS011;68700;48.534;9.196;2023-04-03T06:14:23;25.83;;;5.67;;
12844;SDS011;68700;48.534;9.196;2023-04-03T06:17:45;33.20;;;6.47;;
12844;SDS011;68700;48.534;9.196;2023-04-03T06:21:09;32.90;;;6.77;;
12844;SDS011;68700;48.534;9.196;2023-04-03T06:24:31;28.43;;;5.87;;
12844;SDS011;68700;48.534;9.196;2023-04-03T06:27:53;33.40;;;7.23;;
12844;SDS011;68700;48.534;9.196;2023-04-03T06:31:16;33.13;;;7.17;;
12844;SDS011;68700;48.534;9.196;2023-04-03T06:34:38;30.30;;;6.43;;
12844;SDS011;68700;48.534;9.196;2023-04-03T06:38:01;28.57;;;5.93;;
12844;SDS011;68700;48.534;9.196;2023-04-03T06:41:29;25.87;;;5.80;;
12844;SDS011;68700;48.534;9.196;2023-04-03T06:44:51;31.70;;;7.10;;
12844;SDS011;68700;48.534;9.196;2023-04-03T06:48:13;31.80;;;6.43;;
12844;SDS011;68700;48.534;9.196;2023-04-03T06:51:36;28.43;;;6.80;;
12844;SDS011;68700;48.534;9.196;2023-04-03T06:55:00;36.03;;;7.80;;
12844;SDS011;68700;48.534;9.196;2023-04-03T06:58:22;28.47;;;6.33;;
12844;SDS011;68700;48.534;9.196;2023-04-03T07:01:44;26.50;;;6.27;;
12844;SDS011;68700;48.534;9.196;2023-04-03T07:05:07;24.83;;;5.90;;
12844;SDS011;68700;48.534;9.196;2023-04-03T07:08:30;28.00;;;6.53;;
12844;SDS011;68700;48.534;9.196;2023-04-03T07:11:53;27.43;;;6.33;;
12844;SDS011;68700;48.534;9.196;2023-04-03T07:15:16;30.63;;;7.20;;
12844;SDS011;68700;48.534;9.196;2023-04-03T07:18:38;30.10;;;6.83;;
12844;SDS011;68700;48.534;9.196;2023-04-03T07:22:00;32.50;;;7.17;;
12844;SDS011;68700;48.534;9.196;2023-04-03T07:25:22;37.40;;;7.17;;
12844;SDS011;68700;48.534;9.196;2023-04-03T07:28:46;32.00;;;6.63;;
12844;SDS011;68700;48.534;9.196;2023-04-03T07:32:08;35.43;;;7.43;;
12844;SDS011;68700;48.534;9.196;2023-04-03T07:35:31;24.97;;;5.70;;
12844;SDS011;68700;48.534;9.196;2023-04-03T07:38:53;29.07;;;6.43;;
12844;SDS011;68700;48.534;9.196;2023-04-03T07:42:15;29.83;;;6.17;;
12844;SDS011;68700;48.534;9.196;2023-04-03T07:45:38;29.80;;;6.03;;
12844;SDS011;68700;48.534;9.196;2023-04-03T07:49:00;35.77;;;6.47;;
12844;SDS011;68700;48.534;9.196;2023-04-03T07:52:23;46.47;;;8.13;;
12844;SDS011;68700;48.534;9.196;2023-04-03T07:55:46;31.87;;;5.50;;
12844;SDS011;68700;48.534;9.196;2023-04-03T07:59:08;30.80;;;5.87;;
12844;SDS011;68700;48.534;9.196;2023-04-03T08:02:32;42.07;;;7.37;;
12844;SDS011;68700;48.534;9.196;2023-04-03T08:05:54;45.23;;;8.07;;
12844;SDS011;68700;48.534;9.196;2023-04-03T08:09:17;38.63;;;6.53;;
12844;SDS011;68700;48.534;9.196;2023-04-03T08:12:39;47.50;;;7.43;;
12844;SDS011;68700;48.534;9.196;2023-04-03T08:16:12;44.50;;;7.20;;
12844;SDS011;68700;48.534;9.196;2023-04-03T08:19:36;42.50;;;7.03;;
12844;SDS011;68700;48.534;9.196;2023-04-03T08:22:58;47.33;;;7.73;;
12844;SDS011;68700;48.534;9.196;2023-04-03T08:26:20;52.43;;;7.87;;
12844;SDS011;68700;48.534;9.196;2023-04-03T08:29:43;30.57;;;5.67;;
12844;SDS011;68700;48.534;9.196;2023-04-03T08:33:05;40.23;;;6.83;;
12844;SDS011;68700;48.534;9.196;2023-04-03T08:36:29;34.93;;;6.80;;
12844;SDS011;68700;48.534;9.196;2023-04-03T08:39:51;32.33;;;6.00;;
12844;SDS011;68700;48.534;9.196;2023-04-03T08:43:20;32.17;;;6.43;;
12844;SDS011;68700;48.534;9.196;2023-04-03T08:46:48;30.37;;;6.10;;
12844;SDS011;68700;48.534;9.196;2023-04-03T08:50:14;37.00;;;8.40;;
12844;SDS011;68700;48.534;9.196;2023-04-03T08:53:39;50.57;;;10.67;;
12844;SDS011;68700;48.534;9.196;2023-04-03T08:57:02;36.03;;;8.40;;
12844;SDS011;68700;48.534;9.196;2023-04-03T09:00:27;36.23;;;8.97;;
12844;SDS011;68700;48.534;9.196;2023-04-03T09:03:50;47.67;;;9.77;;
12844;SDS011;68700;48.534;9.196;2023-04-03T09:07:13;40.57;;;8.13;;
12844;SDS011;68700;48.534;9.196;2023-04-03T09:10:39;36.00;;;8.17;;
12844;SDS011;68700;48.534;9.196;2023-04-03T09:14:04;43.87;;;9.53;;
12844;SDS011;68700;48.534;9.196;2023-04-03T09:17:33;39.30;;;8.50;;
12844;SDS011;68700;48.534;9.196;2023-04-03T09:20:59;35.87;;;7.80;;
12844;SDS011;68700;48.534;9.196;2023-04-03T09:24:23;30.50;;;7.13;;
12844;SDS011;68700;48.534;9.196;2023-04-03T09:27:47;26.70;;;6.70;;
12844;SDS011;68700;48.534;9.196;2023-04-03T09:31:14;37.97;;;8.17;;
12844;SDS011;68700;48.534;9.196;2023-04-03T09:34:38;36.77;;;7.97;;
12844;SDS011;68700;48.534;9.196;2023-04-03T09:38:14;32.23;;;7.10;;
12844;SDS011;68700;48.534;9.196;2023-04-03T09:41:36;36.83;;;8.37;;
12844;SDS011;68700;48.534;9.196;2023-04-03T09:45:01;36.57;;;7.43;;
12844;SDS011;68700;48.534;9.196;2023-04-03T09:48:23;36.93;;;7.70;;
12844;SDS011;68700;48.534;9.196;2023-04-03T09:51:48;32.80;;;6.97;;
12844;SDS011;68700;48.534;9.196;2023-04-03T09:55:13;36.23;;;7.77;;
12844;SDS011;68700;48.534;9.196;2023-04-03T09:58:37;36.30;;;7.27;;
12844;SDS011;68700;48.534;9.196;2023-04-03T10:02:02;32.33;;;7.43;;
12844;SDS011;68700;48.534;9.196;2023-04-03T10:05:26;28.73;;;6.30;;
12844;SDS011;68700;48.534;9.196;2023-04-03T10:08:51;34.73;;;7.47;;
12844;SDS011;68700;48.534;9.196;2023-04-03T10:12:19;32.03;;;6.87;;
12844;SDS011;68700;48.534;9.196;2023-04-03T10:15:43;31.20;;;6.57;;
12844;SDS011;68700;48.534;9.196;2023-04-03T10:19:13;41.30;;;8.00;;
12844;SDS011;68700;48.534;9.196;2023-04-03T10:22:40;41.17;;;8.03;;
12844;SDS011;68700;48.534;9.196;2023-04-03T10:26:08;33.07;;;6.97;;
12844;SDS011;68700;48.534;9.196;2023-04-03T10:29:39;28.10;;;5.97;;
12844;SDS011;68700;48.534;9.196;2023-04-03T10:36:48;30.50;;;6.37;;
12844;SDS011;68700;48.534;9.196;2023-04-03T10:40:15;31.73;;;6.80;;
12844;SDS011;68700;48.534;9.196;2023-04-03T10:43:42;38.00;;;7.53;;
12844;SDS011;68700;48.534;9.196;2023-04-03T10:47:06;27.67;;;6.10;;
12844;SDS011;68700;48.534;9.196;2023-04-03T10:50:31;30.90;;;6.50;;
12844;SDS011;68700;48.534;9.196;2023-04-03T10:54:03;40.43;;;7.87;;
12844;SDS011;68700;48.534;9.196;2023-04-03T10:57:27;26.77;;;5.83;;
12844;SDS011;68700;48.534;9.196;2023-04-03T11:00:50;30.70;;;6.43;;
12844;SDS011;68700;48.534;9.196;2023-04-03T11:04:13;36.07;;;7.13;;
12844;SDS011;68700;48.534;9.196;2023-04-03T11:07:37;27.70;;;5.83;;
12844;SDS011;68700;48.534;9.196;2023-04-03T11:11:02;32.13;;;6.73;;
12844;SDS011;68700;48.534;9.196;2023-04-03T11:14:26;28.77;;;6.43;;
12844;SDS011;68700;48.534;9.196;2023-04-03T11:17:50;28.10;;;6.00;;
12844;SDS011;68700;48.534;9.196;2023-04-03T11:21:16;28.30;;;6.07;;
12844;SDS011;68700;48.534;9.196;2023-04-03T11:24:42;29.37;;;5.93;;
12844;SDS011;68700;48.534;9.196;2023-04-03T11:28:09;26.00;;;5.77;;
12844;SDS011;68700;48.534;9.196;2023-04-03T11:31:38;39.93;;;7.47;;
12844;SDS011;68700;48.534;9.196;2023-04-03T11:35:02;36.10;;;7.47;;
12844;SDS011;68700;48.534;9.196;2023-04-03T11:38:28;47.07;;;8.90;;
12844;SDS011;68700;48.534;9.196;2023-04-03T11:41:56;31.33;;;6.10;;
12844;SDS011;68700;48.534;9.196;2023-04-03T11:45:37;27.00;;;5.90;;
12844;SDS011;68700;48.534;9.196;2023-04-03T11:49:00;42.07;;;7.83;;
12844;SDS011;68700;48.534;9.196;2023-04-03T11:56:03;36.83;;;7.23;;
12844;SDS011;68700;48.534;9.196;2023-04-03T11:59:26;27.50;;;5.40;;
12844;SDS011;68700;48.534;9.196;2023-04-03T12:02:50;42.97;;;7.87;;
12844;SDS011;68700;48.534;9.196;2023-04-03T12:09:57;30.83;;;6.03;;
12844;SDS011;68700;48.534;9.196;2023-04-03T12:13:20;37.00;;;7.07;;
12844;SDS011;68700;48.534;9.196;2023-04-03T12:16:43;37.00;;;6.83;;
12844;SDS011;68700;48.534;9.196;2023-04-03T12:24:00;37.00;;;7.03;;
12844;SDS011;68700;48.534;9.196;2023-04-03T12:27:27;26.83;;;5.80;;
12844;SDS011;68700;48.534;9.196;2023-04-03T12:30:50;46.77;;;8.63;;
12844;SDS011;68700;48.534;9.196;2023-04-03T12:34:15;28.27;;;5.70;;
12844;SDS011;68700;48.534;9.196;2023-04-03T12:37:44;34.00;;;6.63;;
12844;SDS011;68700;48.534;9.196;2023-04-03T12:41:17;44.10;;;8.27;;
12844;SDS011;68700;48.534;9.196;2023-04-03T12:44:44;33.23;;;6.73;;
12844;SDS011;68700;48.534;9.196;2023-04-03T12:48:12;39.83;;;7.87;;
12844;SDS011;68700;48.534;9.196;2023-04-03T12:51:37;34.37;;;6.87;;
12844;SDS011;68700;48.534;9.196;2023-04-03T12:55:00;20.47;;;5.30;;
12844;SDS011;68700;48.534;9.196;2023-04-03T12:58:26;47.27;;;9.23;;
12844;SDS011;68700;48.534;9.196;2023-04-03T13:01:53;32.77;;;7.30;;
12844;SDS011;68700;48.534;9.196;2023-04-03T13:05:17;36.63;;;7.33;;
12844;SDS011;68700;48.534;9.196;2023-04-03T13:08:47;32.93;;;7.43;;
12844;SDS011;68700;48.534;9.196;2023-04-03T13:12:10;38.03;;;8.00;;
12844;SDS011;68700;48.534;9.196;2023-04-03T13:15:41;39.60;;;8.37;;
12844;SDS011;68700;48.534;9.196;2023-04-03T13:19:05;32.83;;;6.93;;
12844;SDS011;68700;48.534;9.196;2023-04-03T13:22:28;31.57;;;7.33;;
12844;SDS011;68700;48.534;9.196;2023-04-03T13:25:52;33.23;;;7.83;;
12844;SDS011;68700;48.534;9.196;2023-04-03T13:29:19;32.87;;;7.20;;
12844;SDS011;68700;48.534;9.196;2023-04-03T13:32:44;44.83;;;9.27;;
12844;SDS011;68700;48.534;9.196;2023-04-03T13:36:06;32.37;;;8.00;;
12844;SDS011;68700;48.534;9.196;2023-04-03T13:39:30;27.53;;;6.60;;
12844;SDS011;68700;48.534;9.196;2023-04-03T13:43:00;48.07;;;9.10;;
12844;SDS011;68700;48.534;9.196;2023-04-03T13:46:24;34.87;;;7.83;;
12844;SDS011;68700;48.534;9.196;2023-04-03T13:49:59;32.57;;;7.13;;
12844;SDS011;68700;48.534;9.196;2023-04-03T13:53:21;36.33;;;7.80;;
12844;SDS011;68700;48.534;9.196;2023-04-03T13:56:44;30.67;;;6.87;;
12844;SDS011;68700;48.534;9.196;2023-04-03T14:00:19;31.57;;;7.10;;
12844;SDS011;68700;48.534;9.196;2023-04-03T14:03:43;42.27;;;8.83;;
12844;SDS011;68700;48.534;9.196;2023-04-03T14:07:07;33.07;;;7.43;;
12844;SDS011;68700;48.534;9.196;2023-04-03T14:10:29;29.30;;;6.50;;
12844;SDS011;68700;48.534;9.196;2023-04-03T14:13:52;39.43;;;8.63;;
12844;SDS011;68700;48.534;9.196;2023-04-03T14:17:15;31.33;;;7.50;;
12844;SDS011;68700;48.534;9.196;2023-04-03T14:20:38;39.13;;;8.70;;
12844;SDS011;68700;48.534;9.196;2023-04-03T14:24:01;40.83;;;8.40;;
12844;SDS011;68700;48.534;9.196;2023-04-03T14:27:24;31.17;;;6.83;;
12844;SDS011;68700;48.534;9.196;2023-04-03T14:30:47;34.90;;;7.70;;
12844;SDS011;68700;48.534;9.196;2023-04-03T14:34:10;40.27;;;8.47;;
12844;SDS011;68700;48.534;9.196;2023-04-03T14:37:32;37.17;;;8.17;;
12844;SDS011;68700;48.534;9.196;2023-04-03T14:40:56;36.37;;;8.13;;
12844;SDS011;68700;48.534;9.196;2023-04-03T14:44:19;34.03;;;7.33;;
12844;SDS011;68700;48.534;9.196;2023-04-03T14:47:44;35.77;;;7.80;;
12844;SDS011;68700;48.534;9.196;2023-04-03T14:51:06;34.07;;;7.40;;
12844;SDS011;68700;48.534;9.196;2023-04-03T14:54:29;39.07;;;8.53;;
12844;SDS011;68700;48.534;9.196;2023-04-03T14:57:52;36.57;;;7.93;;
12844;SDS011;68700;48.534;9.196;2023-04-03T15:01:15;30.77;;;7.30;;
12844;SDS011;68700;48.534;9.196;2023-04-03T15:04:37;37.67;;;8.93;;
12844;SDS011;68700;48.534;9.196;2023-04-03T15:07:59;33.20;;;7.97;;
12844;SDS011;68700;48.534;9.196;2023-04-03T15:11:21;31.37;;;7.33;;
12844;SDS011;68700;48.534;9.196;2023-04-03T15:14:45;40.20;;;8.83;;
12844;SDS011;68700;48.534;9.196;2023-04-03T15:18:09;30.70;;;7.50;;
12844;SDS011;68700;48.534;9.196;2023-04-03T15:21:34;35.40;;;7.63;;
12844;SDS011;68700;48.534;9.196;2023-04-03T15:24:56;39.47;;;8.50;;
12844;SDS011;68700;48.534;9.196;2023-04-03T15:28:18;30.00;;;7.07;;
12844;SDS011;68700;48.534;9.196;2023-04-03T15:31:44;28.63;;;6.63;;
12844;SDS011;68700;48.534;9.196;2023-04-03T15:35:06;38.97;;;8.67;;
12844;SDS011;68700;48.534;9.196;2023-04-03T15:38:29;36.50;;;8.00;;
12844;SDS011;68700;48.534;9.196;2023-04-03T15:41:51;26.67;;;6.53;;
12844;SDS011;68700;48.534;9.196;2023-04-03T15:45:13;36.57;;;8.13;;
12844;SDS011;68700;48.534;9.196;2023-04-03T15:48:37;50.07;;;9.67;;
12844;SDS011;68700;48.534;9.196;2023-04-03T15:51:59;29.20;;;6.67;;
12844;SDS011;68700;48.534;9.196;2023-04-03T15:55:22;33.70;;;7.60;;
12844;SDS011;68700;48.534;9.196;2023-04-03T15:58:44;38.87;;;7.97;;
12844;SDS011;68700;48.534;9.196;2023-04-03T16:02:06;32.67;;;7.23;;
12844;SDS011;68700;48.534;9.196;2023-04-03T16:05:31;35.77;;;7.10;;
12844;SDS011;68700;48.534;9.196;2023-04-03T16:08:53;37.77;;;7.80;;
12844;SDS011;68700;48.534;9.196;2023-04-03T16:12:17;28.33;;;6.57;;
12844;SDS011;68700;48.534;9.196;2023-04-03T16:15:40;41.30;;;8.53;;
12844;SDS011;68700;48.534;9.196;2023-04-03T16:19:02;42.80;;;11.33;;
12844;SDS011;68700;48.534;9.196;2023-04-03T16:22:27;36.83;;;10.47;;
12844;SDS011;68700;48.534;9.196;2023-04-03T16:25:49;51.00;;;13.30;;
12844;SDS011;68700;48.534;9.196;2023-04-03T16:29:11;53.17;;;15.83;;
12844;SDS011;68700;48.534;9.196;2023-04-03T16:32:33;55.87;;;18.10;;
12844;SDS011;68700;48.534;9.196;2023-04-03T16:35:56;63.80;;;20.90;;
12844;SDS011;68700;48.534;9.196;2023-04-03T16:43:05;63.77;;;19.93;;
12844;SDS011;68700;48.534;9.196;2023-04-03T16:46:27;49.83;;;18.43;;
12844;SDS011;68700;48.534;9.196;2023-04-03T16:49:54;62.93;;;21.63;;
12844;SDS011;68700;48.534;9.196;2023-04-03T16:53:17;58.80;;;19.20;;
12844;SDS011;68700;48.534;9.196;2023-04-03T16:56:39;58.17;;;20.80;;
12844;SDS011;68700;48.534;9.196;2023-04-03T17:00:07;60.40;;;20.83;;
12844;SDS011;68700;48.534;9.196;2023-04-03T17:03:29;55.20;;;19.37;;
12844;SDS011;68700;48.534;9.196;2023-04-03T17:06:54;54.53;;;19.07;;
12844;SDS011;68700;48.534;9.196;2023-04-03T17:10:17;47.93;;;17.43;;
12844;SDS011;68700;48.534;9.196;2023-04-03T17:13:39;58.33;;;18.13;;
12844;SDS011;68700;48.534;9.196;2023-04-03T17:17:03;58.47;;;17.53;;
12844;SDS011;68700;48.534;9.196;2023-04-03T17:20:25;54.70;;;18.23;;
12844;SDS011;68700;48.534;9.196;2023-04-03T17:23:50;54.13;;;16.90;;
12844;SDS011;68700;48.534;9.196;2023-04-03T17:27:14;53.50;;;16.47;;
12844;SDS011;68700;48.534;9.196;2023-04-03T17:30:36;50.60;;;15.80;;
12844;SDS011;68700;48.534;9.196;2023-04-03T17:34:00;46.70;;;15.10;;
12844;SDS011;68700;48.534;9.196;2023-04-03T17:37:22;45.73;;;14.87;;
12844;SDS011;68700;48.534;9.196;2023-04-03T17:40:45;96.27;;;21.40;;
12844;SDS011;68700;48.534;9.196;2023-04-03T17:44:07;42.80;;;13.60;;
12844;SDS011;68700;48.534;9.196;2023-04-03T17:47:29;44.13;;;13.60;;
12844;SDS011;68700;48.534;9.196;2023-04-03T17:50:53;40.93;;;12.60;;
12844;SDS011;68700;48.534;9.196;2023-04-03T17:54:15;61.70;;;14.93;;
12844;SDS011;68700;48.534;9.196;2023-04-03T17:57:37;41.73;;;12.13;;
12844;SDS011;68700;48.534;9.196;2023-04-03T18:01:06;34.70;;;10.80;;
12844;SDS011;68700;48.534;9.196;2023-04-03T18:04:28;45.57;;;12.17;;
12844;SDS011;68700;48.534;9.196;2023-04-03T18:07:52;46.20;;;12.03;;
12844;SDS011;68700;48.534;9.196;2023-04-03T18:11:15;40.63;;;11.03;;
12844;SDS011;68700;48.534;9.196;2023-04-03T18:14:37;44.77;;;12.00;;
12844;SDS011;68700;48.534;9.196;2023-04-03T18:18:00;46.30;;;12.23;;
12844;SDS011;68700;48.534;9.196;2023-04-03T18:21:22;42.47;;;11.70;;
12844;SDS011;68700;48.534;9.196;2023-04-03T18:24:46;40.57;;;10.57;;
12844;SDS011;68700;48.534;9.196;2023-04-03T18:28:08;37.50;;;9.23;;
12844;SDS011;68700;48.534;9.196;2023-04-03T18:31:31;33.40;;;10.07;;
12844;SDS011;68700;48.534;9.196;2023-04-03T18:34:54;47.17;;;11.07;;
12844;SDS011;68700;48.534;9.196;2023-04-03T18:38:17;31.67;;;8.93;;
12844;SDS011;68700;48.534;9.196;2023-04-03T18:41:40;42.73;;;10.23;;
12844;SDS011;68700;48.534;9.196;2023-04-03T18:45:03;45.33;;;10.47;;
12844;SDS011;68700;48.534;9.196;2023-04-03T18:48:26;34.87;;;8.73;;
12844;SDS011;68700;48.534;9.196;2023-04-03T19:01:47;48.43;;;9.10;;
12844;SDS011;68700;48.534;9.196;2023-04-03T19:05:10;33.40;;;8.47;;
12844;SDS011;68700;48.534;9.196;2023-04-03T19:08:33;37.17;;;8.83;;
12844;SDS011;68700;48.534;9.196;2023-04-03T19:11:56;36.27;;;8.17;;
12844;SDS011;68700;48.534;9.196;2023-04-03T19:15:19;40.87;;;9.07;;
12844;SDS011;68700;48.534;9.196;2023-04-03T19:18:43;31.77;;;8.40;;
12844;SDS011;68700;48.534;9.196;2023-04-03T19:22:05;27.50;;;7.27;;
12844;SDS011;68700;48.534;9.196;2023-04-03T19:25:27;32.43;;;8.47;;
12844;SDS011;68700;48.534;9.196;2023-04-03T19:28:50;31.43;;;8.30;;
12844;SDS011;68700;48.534;9.196;2023-04-03T19:32:12;32.07;;;8.57;;
12844;SDS011;68700;48.534;9.196;2023-04-03T19:35:38;34.60;;;8.33;;
12844;SDS011;68700;48.534;9.196;2023-04-03T19:39:00;33.10;;;8.30;;
12844;SDS011;68700;48.534;9.196;2023-04-03T19:42:22;29.17;;;7.83;;
12844;SDS011;68700;48.534;9.196;2023-04-03T19:45:45;37.50;;;9.17;;
12844;SDS011;68700;48.534;9.196;2023-04-03T19:49:07;33.60;;;8.40;;
12844;SDS011;68700;48.534;9.196;2023-04-03T19:52:31;34.77;;;7.37;;
12844;SDS011;68700;48.534;9.196;2023-04-03T19:55:53;37.37;;;9.13;;
12844;SDS011;68700;48.534;9.196;2023-04-03T20:03:14;29.13;;;7.40;;
12844;SDS011;68700;48.534;9.196;2023-04-03T20:06:37;30.70;;;7.77;;
12844;SDS011;68700;48.534;9.196;2023-04-03T20:10:00;31.00;;;7.93;;
12844;SDS011;68700;48.534;9.196;2023-04-03T20:13:24;31.37;;;7.33;;
12844;SDS011;68700;48.534;9.196;2023-04-03T20:16:47;35.80;;;8.13;;
12844;SDS011;68700;48.534;9.196;2023-04-03T20:20:09;28.97;;;7.07;;
12844;SDS011;68700;48.534;9.196;2023-04-03T20:23:32;43.77;;;9.60;;
12844;SDS011;68700;48.534;9.196;2023-04-03T20:26:57;33.07;;;8.23;;
12844;SDS011;68700;48.534;9.196;2023-04-03T20:30:20;38.83;;;8.93;;
12844;SDS011;68700;48.534;9.196;2023-04-03T20:33:43;36.93;;;8.73;;
12844;SDS011;68700;48.534;9.196;2023-04-03T20:37:05;32.17;;;7.63;;
12844;SDS011;68700;48.534;9.196;2023-04-03T20:40:27;42.47;;;9.27;;